sensor_id;sensor_type;location;lat;lon;timestamp;P1;durP1;ratioP1;P2;durP2;ratioP2
84231;SDS011;74368;48.022;13.830;2024-02-28T00:00:25;35.67;;;18.45;;
84231;SDS011;74368;48.022;13.830;2024-02-28T00:02:50;34.58;;;19.88;;
84231;SDS011;74368;48.022;13.830;2024-02-28T00:09:22;38.15;;;18.92;;
84231;SDS011;74368;48.022;13.830;2024-02-28T00:11:47;40.08;;;19.13;;
84231;SDS011;74368;48.022;13.830;2024-02-28T00:14:13;37.58;;;18.30;;
84231;SDS011;74368;48.022;13.830;2024-02-28T00:16:45;36.22;;;18.27;;
84231;SDS011;74368;48.022;13.830;2024-02-28T00:19:12;37.00;;;18.58;;
84231;SDS011;74368;48.022;13.830;2024-02-28T00:21:41;35.10;;;17.52;;
84231;SDS011;74368;48.022;13.830;2024-02-28T00:24:06;34.85;;;18.67;;
84231;SDS011;74368;48.022;13.830;2024-02-28T00:26:32;32.75;;;18.48;;
84231;SDS011;74368;48.022;13.830;2024-02-28T00:28:57;37.08;;;19.15;;
84231;SDS011;74368;48.022;13.830;2024-02-28T00:31:23;34.83;;;17.73;;
84231;SDS011;74368;48.022;13.830;2024-02-28T00:33:48;36.10;;;18.20;;
84231;SDS011;74368;48.022;13.830;2024-02-28T00:36:14;34.42;;;16.67;;
84231;SDS011;74368;48.022;13.830;2024-02-28T00:38:40;37.20;;;18.52;;
84231;SDS011;74368;48.022;13.830;2024-02-28T00:41:06;38.20;;;18.88;;
84231;SDS011;74368;48.022;13.830;2024-02-28T00:43:31;37.05;;;18.00;;
84231;SDS011;74368;48.022;13.830;2024-02-28T00:45:56;39.25;;;18.95;;
84231;SDS011;74368;48.022;13.830;2024-02-28T00:48:23;35.97;;;19.13;;
84231;SDS011;74368;48.022;13.830;2024-02-28T00:50:48;37.00;;;19.05;;
84231;SDS011;74368;48.022;13.830;2024-02-28T00:53:14;37.70;;;19.52;;
84231;SDS011;74368;48.022;13.830;2024-02-28T00:55:39;37.65;;;18.33;;
84231;SDS011;74368;48.022;13.830;2024-02-28T00:58:04;42.15;;;18.67;;
84231;SDS011;74368;48.022;13.830;2024-02-28T01:00:29;34.38;;;18.88;;
84231;SDS011;74368;48.022;13.830;2024-02-28T01:02:55;36.47;;;17.83;;
84231;SDS011;74368;48.022;13.830;2024-02-28T01:05:22;34.40;;;17.55;;
84231;SDS011;74368;48.022;13.830;2024-02-28T01:07:47;34.55;;;18.30;;
84231;SDS011;74368;48.022;13.830;2024-02-28T01:10:12;37.25;;;18.13;;
84231;SDS011;74368;48.022;13.830;2024-02-28T01:12:38;37.10;;;17.73;;
84231;SDS011;74368;48.022;13.830;2024-02-28T01:15:03;32.78;;;18.10;;
84231;SDS011;74368;48.022;13.830;2024-02-28T01:17:29;35.05;;;17.60;;
84231;SDS011;74368;48.022;13.830;2024-02-28T01:19:54;36.33;;;17.63;;
84231;SDS011;74368;48.022;13.830;2024-02-28T01:22:19;38.05;;;18.63;;
84231;SDS011;74368;48.022;13.830;2024-02-28T01:24:45;37.22;;;18.10;;
84231;SDS011;74368;48.022;13.830;2024-02-28T01:27:10;38.10;;;19.95;;
84231;SDS011;74368;48.022;13.830;2024-02-28T01:29:35;38.25;;;18.05;;
84231;SDS011;74368;48.022;13.830;2024-02-28T01:32:01;36.97;;;17.75;;
84231;SDS011;74368;48.022;13.830;2024-02-28T01:34:26;38.63;;;17.58;;
84231;SDS011;74368;48.022;13.830;2024-02-28T01:36:51;36.92;;;17.83;;
84231;SDS011;74368;48.022;13.830;2024-02-28T01:39:17;33.20;;;17.42;;
84231;SDS011;74368;48.022;13.830;2024-02-28T01:41:50;39.75;;;18.00;;
84231;SDS011;74368;48.022;13.830;2024-02-28T01:44:16;34.55;;;18.55;;
84231;SDS011;74368;48.022;13.830;2024-02-28T01:46:42;31.85;;;16.98;;
84231;SDS011;74368;48.022;13.830;2024-02-28T01:49:07;32.17;;;17.42;;
84231;SDS011;74368;48.022;13.830;2024-02-28T01:51:33;39.00;;;17.50;;
84231;SDS011;74368;48.022;13.830;2024-02-28T01:53:58;33.55;;;17.40;;
84231;SDS011;74368;48.022;13.830;2024-02-28T01:56:24;35.85;;;18.45;;
84231;SDS011;74368;48.022;13.830;2024-02-28T01:58:50;37.08;;;17.42;;
84231;SDS011;74368;48.022;13.830;2024-02-28T02:01:16;35.50;;;17.48;;
84231;SDS011;74368;48.022;13.830;2024-02-28T02:03:43;36.47;;;18.27;;
84231;SDS011;74368;48.022;13.830;2024-02-28T02:06:08;35.50;;;18.13;;
84231;SDS011;74368;48.022;13.830;2024-02-28T02:08:34;32.55;;;17.35;;
84231;SDS011;74368;48.022;13.830;2024-02-28T02:11:01;35.58;;;19.20;;
84231;SDS011;74368;48.022;13.830;2024-02-28T02:13:26;34.03;;;16.60;;
84231;SDS011;74368;48.022;13.830;2024-02-28T02:15:51;35.88;;;18.55;;
84231;SDS011;74368;48.022;13.830;2024-02-28T02:18:17;34.13;;;18.30;;
84231;SDS011;74368;48.022;13.830;2024-02-28T02:20:43;39.63;;;17.55;;
84231;SDS011;74368;48.022;13.830;2024-02-28T02:23:11;41.28;;;18.08;;
84231;SDS011;74368;48.022;13.830;2024-02-28T02:25:44;39.45;;;18.17;;
84231;SDS011;74368;48.022;13.830;2024-02-28T02:28:10;38.15;;;17.90;;
84231;SDS011;74368;48.022;13.830;2024-02-28T02:30:36;37.10;;;16.90;;
84231;SDS011;74368;48.022;13.830;2024-02-28T02:33:01;36.80;;;17.73;;
84231;SDS011;74368;48.022;13.830;2024-02-28T02:35:26;36.65;;;18.23;;
84231;SDS011;74368;48.022;13.830;2024-02-28T02:37:51;40.10;;;16.85;;
84231;SDS011;74368;48.022;13.830;2024-02-28T02:40:17;35.47;;;17.23;;
84231;SDS011;74368;48.022;13.830;2024-02-28T02:42:42;42.28;;;18.98;;
84231;SDS011;74368;48.022;13.830;2024-02-28T02:45:07;37.00;;;17.65;;
84231;SDS011;74368;48.022;13.830;2024-02-28T02:47:33;32.55;;;17.75;;
84231;SDS011;74368;48.022;13.830;2024-02-28T02:49:58;32.92;;;16.75;;
84231;SDS011;74368;48.022;13.830;2024-02-28T02:52:24;36.97;;;17.63;;
84231;SDS011;74368;48.022;13.830;2024-02-28T02:54:49;35.65;;;18.63;;
84231;SDS011;74368;48.022;13.830;2024-02-28T02:57:14;38.28;;;18.67;;
84231;SDS011;74368;48.022;13.830;2024-02-28T02:59:40;38.75;;;18.00;;
84231;SDS011;74368;48.022;13.830;2024-02-28T03:02:05;34.75;;;18.05;;
84231;SDS011;74368;48.022;13.830;2024-02-28T03:04:30;41.70;;;18.75;;
84231;SDS011;74368;48.022;13.830;2024-02-28T03:06:56;37.90;;;18.45;;
84231;SDS011;74368;48.022;13.830;2024-02-28T03:09:21;39.40;;;18.55;;
84231;SDS011;74368;48.022;13.830;2024-02-28T03:11:46;35.45;;;17.73;;
84231;SDS011;74368;48.022;13.830;2024-02-28T03:14:37;39.83;;;19.38;;
84231;SDS011;74368;48.022;13.830;2024-02-28T03:17:02;45.83;;;19.17;;
84231;SDS011;74368;48.022;13.830;2024-02-28T03:19:28;42.75;;;21.10;;
84231;SDS011;74368;48.022;13.830;2024-02-28T03:21:54;37.15;;;19.88;;
84231;SDS011;74368;48.022;13.830;2024-02-28T03:24:19;41.00;;;20.15;;
84231;SDS011;74368;48.022;13.830;2024-02-28T03:26:44;42.10;;;19.38;;
84231;SDS011;74368;48.022;13.830;2024-02-28T03:29:10;38.80;;;20.33;;
84231;SDS011;74368;48.022;13.830;2024-02-28T03:31:35;39.97;;;19.20;;
84231;SDS011;74368;48.022;13.830;2024-02-28T03:34:00;38.67;;;19.15;;
84231;SDS011;74368;48.022;13.830;2024-02-28T03:36:27;46.35;;;21.08;;
84231;SDS011;74368;48.022;13.830;2024-02-28T03:38:53;44.15;;;20.83;;
84231;SDS011;74368;48.022;13.830;2024-02-28T03:41:18;43.25;;;19.25;;
84231;SDS011;74368;48.022;13.830;2024-02-28T03:43:43;40.88;;;20.50;;
84231;SDS011;74368;48.022;13.830;2024-02-28T03:46:09;36.45;;;19.02;;
84231;SDS011;74368;48.022;13.830;2024-02-28T03:48:34;35.15;;;17.95;;
84231;SDS011;74368;48.022;13.830;2024-02-28T03:50:59;44.10;;;19.63;;
84231;SDS011;74368;48.022;13.830;2024-02-28T03:53:25;39.20;;;19.20;;
84231;SDS011;74368;48.022;13.830;2024-02-28T03:55:50;39.92;;;19.17;;
84231;SDS011;74368;48.022;13.830;2024-02-28T03:58:15;40.72;;;18.92;;
84231;SDS011;74368;48.022;13.830;2024-02-28T04:00:41;35.88;;;18.45;;
84231;SDS011;74368;48.022;13.830;2024-02-28T04:03:09;37.00;;;18.73;;
84231;SDS011;74368;48.022;13.830;2024-02-28T04:05:34;36.47;;;18.02;;
84231;SDS011;74368;48.022;13.830;2024-02-28T04:08:00;39.72;;;19.90;;
84231;SDS011;74368;48.022;13.830;2024-02-28T04:10:25;37.13;;;17.90;;
84231;SDS011;74368;48.022;13.830;2024-02-28T04:12:50;40.38;;;18.55;;
84231;SDS011;74368;48.022;13.830;2024-02-28T04:15:16;37.50;;;17.45;;
84231;SDS011;74368;48.022;13.830;2024-02-28T04:17:41;34.25;;;17.85;;
84231;SDS011;74368;48.022;13.830;2024-02-28T04:20:10;36.00;;;17.05;;
84231;SDS011;74368;48.022;13.830;2024-02-28T04:22:37;39.05;;;17.90;;
84231;SDS011;74368;48.022;13.830;2024-02-28T04:25:03;34.75;;;17.38;;
84231;SDS011;74368;48.022;13.830;2024-02-28T04:27:29;34.22;;;17.65;;
84231;SDS011;74368;48.022;13.830;2024-02-28T04:29:55;34.95;;;17.08;;
84231;SDS011;74368;48.022;13.830;2024-02-28T04:32:20;34.80;;;16.55;;
84231;SDS011;74368;48.022;13.830;2024-02-28T04:34:45;38.83;;;17.60;;
84231;SDS011;74368;48.022;13.830;2024-02-28T04:37:11;37.88;;;19.58;;
84231;SDS011;74368;48.022;13.830;2024-02-28T04:39:36;35.10;;;17.55;;
84231;SDS011;74368;48.022;13.830;2024-02-28T04:42:01;32.38;;;16.55;;
84231;SDS011;74368;48.022;13.830;2024-02-28T04:44:27;34.97;;;16.77;;
84231;SDS011;74368;48.022;13.830;2024-02-28T04:46:52;39.78;;;17.55;;
84231;SDS011;74368;48.022;13.830;2024-02-28T04:49:18;37.63;;;17.38;;
84231;SDS011;74368;48.022;13.830;2024-02-28T04:51:43;37.72;;;16.65;;
84231;SDS011;74368;48.022;13.830;2024-02-28T04:54:08;37.50;;;18.17;;
84231;SDS011;74368;48.022;13.830;2024-02-28T04:56:38;32.40;;;16.83;;
84231;SDS011;74368;48.022;13.830;2024-02-28T04:59:13;33.35;;;16.85;;
84231;SDS011;74368;48.022;13.830;2024-02-28T05:01:39;35.13;;;17.48;;
84231;SDS011;74368;48.022;13.830;2024-02-28T05:04:07;29.77;;;16.33;;
84231;SDS011;74368;48.022;13.830;2024-02-28T05:06:33;34.85;;;16.65;;
84231;SDS011;74368;48.022;13.830;2024-02-28T05:08:58;31.13;;;16.63;;
84231;SDS011;74368;48.022;13.830;2024-02-28T05:11:24;32.85;;;16.92;;
84231;SDS011;74368;48.022;13.830;2024-02-28T05:13:49;30.27;;;14.73;;
84231;SDS011;74368;48.022;13.830;2024-02-28T05:16:15;30.13;;;15.35;;
84231;SDS011;74368;48.022;13.830;2024-02-28T05:18:41;30.73;;;15.00;;
84231;SDS011;74368;48.022;13.830;2024-02-28T05:21:06;32.63;;;16.75;;
84231;SDS011;74368;48.022;13.830;2024-02-28T05:23:32;34.65;;;16.13;;
84231;SDS011;74368;48.022;13.830;2024-02-28T05:25:57;30.63;;;15.30;;
84231;SDS011;74368;48.022;13.830;2024-02-28T05:28:23;28.20;;;14.82;;
84231;SDS011;74368;48.022;13.830;2024-02-28T05:30:48;29.83;;;15.00;;
84231;SDS011;74368;48.022;13.830;2024-02-28T05:33:14;29.92;;;15.20;;
84231;SDS011;74368;48.022;13.830;2024-02-28T05:35:40;27.80;;;14.85;;
84231;SDS011;74368;48.022;13.830;2024-02-28T05:38:05;32.58;;;15.90;;
84231;SDS011;74368;48.022;13.830;2024-02-28T05:40:31;36.53;;;16.83;;
84231;SDS011;74368;48.022;13.830;2024-02-28T05:42:56;34.25;;;15.77;;
84231;SDS011;74368;48.022;13.830;2024-02-28T05:45:21;29.42;;;16.67;;
84231;SDS011;74368;48.022;13.830;2024-02-28T05:47:47;31.48;;;16.63;;
84231;SDS011;74368;48.022;13.830;2024-02-28T05:50:12;30.27;;;16.27;;
84231;SDS011;74368;48.022;13.830;2024-02-28T05:52:41;35.60;;;17.17;;
84231;SDS011;74368;48.022;13.830;2024-02-28T05:55:06;35.83;;;17.90;;
84231;SDS011;74368;48.022;13.830;2024-02-28T05:57:32;37.65;;;17.23;;
84231;SDS011;74368;48.022;13.830;2024-02-28T05:59:57;34.67;;;16.77;;
84231;SDS011;74368;48.022;13.830;2024-02-28T06:02:23;31.75;;;16.27;;
84231;SDS011;74368;48.022;13.830;2024-02-28T06:04:49;33.40;;;15.70;;
84231;SDS011;74368;48.022;13.830;2024-02-28T06:07:14;31.30;;;15.95;;
84231;SDS011;74368;48.022;13.830;2024-02-28T06:09:39;37.50;;;16.15;;
84231;SDS011;74368;48.022;13.830;2024-02-28T06:12:05;28.58;;;14.50;;
84231;SDS011;74368;48.022;13.830;2024-02-28T06:14:30;30.10;;;14.68;;
84231;SDS011;74368;48.022;13.830;2024-02-28T06:16:56;26.55;;;13.40;;
84231;SDS011;74368;48.022;13.830;2024-02-28T06:19:21;41.03;;;15.63;;
84231;SDS011;74368;48.022;13.830;2024-02-28T06:21:46;40.95;;;16.05;;
84231;SDS011;74368;48.022;13.830;2024-02-28T06:24:12;31.73;;;14.55;;
84231;SDS011;74368;48.022;13.830;2024-02-28T06:26:37;32.88;;;14.40;;
84231;SDS011;74368;48.022;13.830;2024-02-28T06:29:02;27.83;;;15.10;;
84231;SDS011;74368;48.022;13.830;2024-02-28T06:31:30;28.85;;;14.10;;
84231;SDS011;74368;48.022;13.830;2024-02-28T06:33:56;30.33;;;15.95;;
84231;SDS011;74368;48.022;13.830;2024-02-28T06:36:21;31.33;;;16.05;;
84231;SDS011;74368;48.022;13.830;2024-02-28T06:38:47;28.73;;;15.48;;
84231;SDS011;74368;48.022;13.830;2024-02-28T06:41:12;29.52;;;15.85;;
84231;SDS011;74368;48.022;13.830;2024-02-28T06:43:37;37.50;;;19.35;;
84231;SDS011;74368;48.022;13.830;2024-02-28T06:46:03;32.33;;;15.90;;
84231;SDS011;74368;48.022;13.830;2024-02-28T06:48:29;34.83;;;16.15;;
84231;SDS011;74368;48.022;13.830;2024-02-28T06:50:54;31.88;;;15.88;;
84231;SDS011;74368;48.022;13.830;2024-02-28T06:53:20;34.95;;;17.80;;
84231;SDS011;74368;48.022;13.830;2024-02-28T06:55:45;28.90;;;15.15;;
84231;SDS011;74368;48.022;13.830;2024-02-28T06:58:13;31.35;;;16.10;;
84231;SDS011;74368;48.022;13.830;2024-02-28T07:00:38;28.67;;;16.17;;
84231;SDS011;74368;48.022;13.830;2024-02-28T07:03:04;30.02;;;16.23;;
84231;SDS011;74368;48.022;13.830;2024-02-28T07:05:29;37.08;;;18.35;;
84231;SDS011;74368;48.022;13.830;2024-02-28T07:07:55;35.13;;;17.73;;
84231;SDS011;74368;48.022;13.830;2024-02-28T07:10:20;37.03;;;18.02;;
84231;SDS011;74368;48.022;13.830;2024-02-28T07:20:06;35.92;;;21.45;;
84231;SDS011;74368;48.022;13.830;2024-02-28T07:22:32;39.90;;;21.50;;
84231;SDS011;74368;48.022;13.830;2024-02-28T07:24:57;44.00;;;21.25;;
84231;SDS011;74368;48.022;13.830;2024-02-28T07:27:22;44.08;;;20.88;;
84231;SDS011;74368;48.022;13.830;2024-02-28T07:29:49;35.83;;;18.90;;
84231;SDS011;74368;48.022;13.830;2024-02-28T07:32:14;34.85;;;17.45;;
84231;SDS011;74368;48.022;13.830;2024-02-28T07:34:39;36.00;;;17.73;;
84231;SDS011;74368;48.022;13.830;2024-02-28T07:37:05;36.22;;;17.63;;
84231;SDS011;74368;48.022;13.830;2024-02-28T07:39:30;34.50;;;18.00;;
84231;SDS011;74368;48.022;13.830;2024-02-28T07:41:55;31.48;;;17.63;;
84231;SDS011;74368;48.022;13.830;2024-02-28T07:44:21;31.45;;;16.90;;
84231;SDS011;74368;48.022;13.830;2024-02-28T07:46:49;36.33;;;17.15;;
84231;SDS011;74368;48.022;13.830;2024-02-28T07:49:17;28.55;;;15.30;;
84231;SDS011;74368;48.022;13.830;2024-02-28T07:51:43;29.15;;;15.75;;
84231;SDS011;74368;48.022;13.830;2024-02-28T07:54:08;30.75;;;16.45;;
84231;SDS011;74368;48.022;13.830;2024-02-28T07:56:34;29.60;;;17.38;;
84231;SDS011;74368;48.022;13.830;2024-02-28T07:58:59;29.35;;;15.35;;
84231;SDS011;74368;48.022;13.830;2024-02-28T08:01:24;32.45;;;16.67;;
84231;SDS011;74368;48.022;13.830;2024-02-28T08:03:50;33.75;;;18.80;;
84231;SDS011;74368;48.022;13.830;2024-02-28T08:06:15;34.70;;;16.50;;
84231;SDS011;74368;48.022;13.830;2024-02-28T08:08:43;33.58;;;16.02;;
84231;SDS011;74368;48.022;13.830;2024-02-28T08:11:10;30.50;;;15.43;;
84231;SDS011;74368;48.022;13.830;2024-02-28T08:13:35;33.70;;;16.48;;
84231;SDS011;74368;48.022;13.830;2024-02-28T08:16:01;32.70;;;17.83;;
84231;SDS011;74368;48.022;13.830;2024-02-28T08:18:26;32.45;;;16.38;;
84231;SDS011;74368;48.022;13.830;2024-02-28T08:20:53;32.35;;;16.00;;
84231;SDS011;74368;48.022;13.830;2024-02-28T08:23:21;34.60;;;16.50;;
84231;SDS011;74368;48.022;13.830;2024-02-28T08:25:46;38.80;;;18.67;;
84231;SDS011;74368;48.022;13.830;2024-02-28T08:28:12;33.05;;;17.67;;
84231;SDS011;74368;48.022;13.830;2024-02-28T08:30:37;30.60;;;16.45;;
84231;SDS011;74368;48.022;13.830;2024-02-28T08:33:02;36.25;;;18.02;;
84231;SDS011;74368;48.022;13.830;2024-02-28T08:35:28;38.40;;;18.42;;
84231;SDS011;74368;48.022;13.830;2024-02-28T08:37:54;40.50;;;19.23;;
84231;SDS011;74368;48.022;13.830;2024-02-28T08:40:19;40.90;;;19.58;;
84231;SDS011;74368;48.022;13.830;2024-02-28T08:42:44;38.72;;;18.77;;
84231;SDS011;74368;48.022;13.830;2024-02-28T08:45:11;39.88;;;19.25;;
84231;SDS011;74368;48.022;13.830;2024-02-28T08:47:36;30.27;;;16.60;;
84231;SDS011;74368;48.022;13.830;2024-02-28T08:50:02;30.10;;;15.85;;
84231;SDS011;74368;48.022;13.830;2024-02-28T08:52:27;35.97;;;16.70;;
84231;SDS011;74368;48.022;13.830;2024-02-28T08:54:52;31.15;;;16.55;;
84231;SDS011;74368;48.022;13.830;2024-02-28T08:57:18;35.78;;;17.00;;
84231;SDS011;74368;48.022;13.830;2024-02-28T08:59:45;37.35;;;18.10;;
84231;SDS011;74368;48.022;13.830;2024-02-28T09:02:10;37.10;;;16.27;;
84231;SDS011;74368;48.022;13.830;2024-02-28T09:04:36;36.10;;;18.50;;
84231;SDS011;74368;48.022;13.830;2024-02-28T09:07:01;32.75;;;17.42;;
84231;SDS011;74368;48.022;13.830;2024-02-28T09:09:26;35.22;;;18.15;;
84231;SDS011;74368;48.022;13.830;2024-02-28T09:11:53;33.55;;;17.75;;
84231;SDS011;74368;48.022;13.830;2024-02-28T09:14:19;31.77;;;16.13;;
84231;SDS011;74368;48.022;13.830;2024-02-28T09:16:44;34.35;;;17.83;;
84231;SDS011;74368;48.022;13.830;2024-02-28T09:19:10;33.90;;;18.05;;
84231;SDS011;74368;48.022;13.830;2024-02-28T09:21:35;31.88;;;17.15;;
84231;SDS011;74368;48.022;13.830;2024-02-28T09:24:26;32.53;;;16.75;;
84231;SDS011;74368;48.022;13.830;2024-02-28T09:26:51;30.83;;;16.67;;
84231;SDS011;74368;48.022;13.830;2024-02-28T09:29:17;33.42;;;17.58;;
84231;SDS011;74368;48.022;13.830;2024-02-28T09:31:42;34.30;;;18.85;;
84231;SDS011;74368;48.022;13.830;2024-02-28T09:34:07;33.88;;;18.95;;
84231;SDS011;74368;48.022;13.830;2024-02-28T09:36:41;36.85;;;18.27;;
84231;SDS011;74368;48.022;13.830;2024-02-28T09:39:11;32.70;;;19.33;;
84231;SDS011;74368;48.022;13.830;2024-02-28T09:41:37;33.58;;;19.00;;
84231;SDS011;74368;48.022;13.830;2024-02-28T09:44:03;37.40;;;18.23;;
84231;SDS011;74368;48.022;13.830;2024-02-28T09:46:31;33.83;;;17.60;;
84231;SDS011;74368;48.022;13.830;2024-02-28T09:48:59;34.85;;;18.75;;
84231;SDS011;74368;48.022;13.830;2024-02-28T09:51:30;40.17;;;19.90;;
84231;SDS011;74368;48.022;13.830;2024-02-28T09:54:01;34.38;;;17.70;;
84231;SDS011;74368;48.022;13.830;2024-02-28T09:56:28;33.30;;;18.05;;
84231;SDS011;74368;48.022;13.830;2024-02-28T09:58:54;30.60;;;16.42;;
84231;SDS011;74368;48.022;13.830;2024-02-28T10:01:21;34.55;;;18.75;;
84231;SDS011;74368;48.022;13.830;2024-02-28T10:03:47;35.45;;;18.98;;
84231;SDS011;74368;48.022;13.830;2024-02-28T10:06:14;32.78;;;17.40;;
84231;SDS011;74368;48.022;13.830;2024-02-28T10:08:40;33.65;;;17.83;;
84231;SDS011;74368;48.022;13.830;2024-02-28T10:11:06;31.98;;;17.80;;
84231;SDS011;74368;48.022;13.830;2024-02-28T10:13:31;36.65;;;18.63;;
84231;SDS011;74368;48.022;13.830;2024-02-28T10:15:57;33.28;;;17.13;;
84231;SDS011;74368;48.022;13.830;2024-02-28T10:18:22;37.55;;;19.95;;
84231;SDS011;74368;48.022;13.830;2024-02-28T10:20:47;33.10;;;18.23;;
84231;SDS011;74368;48.022;13.830;2024-02-28T10:26:54;32.00;;;15.52;;
84231;SDS011;74368;48.022;13.830;2024-02-28T10:29:25;37.83;;;18.95;;
84231;SDS011;74368;48.022;13.830;2024-02-28T10:31:54;36.75;;;19.05;;
84231;SDS011;74368;48.022;13.830;2024-02-28T10:34:20;33.70;;;17.45;;
84231;SDS011;74368;48.022;13.830;2024-02-28T10:36:46;35.35;;;18.25;;
84231;SDS011;74368;48.022;13.830;2024-02-28T10:39:11;39.75;;;20.08;;
84231;SDS011;74368;48.022;13.830;2024-02-28T10:41:39;33.50;;;16.90;;
84231;SDS011;74368;48.022;13.830;2024-02-28T10:44:05;35.97;;;18.40;;
84231;SDS011;74368;48.022;13.830;2024-02-28T10:50:37;31.35;;;16.30;;
84231;SDS011;74368;48.022;13.830;2024-02-28T10:53:03;31.58;;;17.17;;
84231;SDS011;74368;48.022;13.830;2024-02-28T10:55:33;35.05;;;17.27;;
84231;SDS011;74368;48.022;13.830;2024-02-28T10:58:02;29.95;;;16.60;;
84231;SDS011;74368;48.022;13.830;2024-02-28T11:00:32;33.33;;;16.42;;
84231;SDS011;74368;48.022;13.830;2024-02-28T11:02:59;32.92;;;17.13;;
84231;SDS011;74368;48.022;13.830;2024-02-28T11:05:37;30.50;;;18.15;;
84231;SDS011;74368;48.022;13.830;2024-02-28T11:10:31;30.50;;;16.60;;
84231;SDS011;74368;48.022;13.830;2024-02-28T11:12:58;36.72;;;18.95;;
84231;SDS011;74368;48.022;13.830;2024-02-28T11:15:24;31.10;;;17.95;;
84231;SDS011;74368;48.022;13.830;2024-02-28T11:17:51;30.33;;;16.52;;
84231;SDS011;74368;48.022;13.830;2024-02-28T11:20:16;38.55;;;18.23;;
84231;SDS011;74368;48.022;13.830;2024-02-28T11:22:42;36.03;;;17.48;;
84231;SDS011;74368;48.022;13.830;2024-02-28T11:25:08;35.67;;;16.98;;
84231;SDS011;74368;48.022;13.830;2024-02-28T11:27:34;33.83;;;17.63;;
84231;SDS011;74368;48.022;13.830;2024-02-28T11:32:35;33.60;;;17.42;;
84231;SDS011;74368;48.022;13.830;2024-02-28T11:35:01;31.67;;;16.67;;
84231;SDS011;74368;48.022;13.830;2024-02-28T11:37:26;31.13;;;17.10;;
84231;SDS011;74368;48.022;13.830;2024-02-28T11:39:52;35.03;;;17.65;;
84231;SDS011;74368;48.022;13.830;2024-02-28T11:42:18;35.60;;;17.55;;
84231;SDS011;74368;48.022;13.830;2024-02-28T11:44:43;37.05;;;18.08;;
84231;SDS011;74368;48.022;13.830;2024-02-28T11:47:17;32.38;;;17.00;;
84231;SDS011;74368;48.022;13.830;2024-02-28T11:49:43;38.95;;;18.33;;
84231;SDS011;74368;48.022;13.830;2024-02-28T11:52:09;33.17;;;16.60;;
84231;SDS011;74368;48.022;13.830;2024-02-28T11:54:36;36.55;;;18.63;;
84231;SDS011;74368;48.022;13.830;2024-02-28T11:57:03;33.15;;;17.95;;
84231;SDS011;74368;48.022;13.830;2024-02-28T11:59:29;38.35;;;18.05;;
84231;SDS011;74368;48.022;13.830;2024-02-28T12:01:54;39.33;;;17.55;;
84231;SDS011;74368;48.022;13.830;2024-02-28T12:04:20;32.88;;;17.33;;
84231;SDS011;74368;48.022;13.830;2024-02-28T12:06:49;34.28;;;17.20;;
84231;SDS011;74368;48.022;13.830;2024-02-28T12:09:14;40.97;;;19.35;;
84231;SDS011;74368;48.022;13.830;2024-02-28T12:11:39;36.95;;;18.50;;
84231;SDS011;74368;48.022;13.830;2024-02-28T12:14:06;42.70;;;18.92;;
84231;SDS011;74368;48.022;13.830;2024-02-28T12:16:34;38.60;;;19.38;;
84231;SDS011;74368;48.022;13.830;2024-02-28T12:19:09;34.88;;;18.90;;
84231;SDS011;74368;48.022;13.830;2024-02-28T12:21:39;32.78;;;17.60;;
84231;SDS011;74368;48.022;13.830;2024-02-28T12:24:06;34.70;;;18.50;;
84231;SDS011;74368;48.022;13.830;2024-02-28T12:30:14;35.83;;;18.75;;
84231;SDS011;74368;48.022;13.830;2024-02-28T12:32:39;32.88;;;17.40;;
84231;SDS011;74368;48.022;13.830;2024-02-28T12:35:05;34.22;;;17.75;;
84231;SDS011;74368;48.022;13.830;2024-02-28T12:37:32;38.50;;;18.15;;
84231;SDS011;74368;48.022;13.830;2024-02-28T12:39:57;34.63;;;18.77;;
84231;SDS011;74368;48.022;13.830;2024-02-28T12:42:23;35.90;;;18.85;;
84231;SDS011;74368;48.022;13.830;2024-02-28T12:44:49;34.95;;;18.58;;
84231;SDS011;74368;48.022;13.830;2024-02-28T12:47:14;38.20;;;19.85;;
84231;SDS011;74368;48.022;13.830;2024-02-28T12:49:40;37.28;;;19.10;;
84231;SDS011;74368;48.022;13.830;2024-02-28T12:52:05;35.30;;;18.45;;
84231;SDS011;74368;48.022;13.830;2024-02-28T12:54:32;37.03;;;18.83;;
84231;SDS011;74368;48.022;13.830;2024-02-28T12:56:57;33.80;;;18.35;;
84231;SDS011;74368;48.022;13.830;2024-02-28T12:59:22;43.50;;;19.13;;
84231;SDS011;74368;48.022;13.830;2024-02-28T13:01:48;37.08;;;19.60;;
84231;SDS011;74368;48.022;13.830;2024-02-28T13:04:14;35.00;;;20.50;;
84231;SDS011;74368;48.022;13.830;2024-02-28T13:06:39;38.00;;;18.95;;
84231;SDS011;74368;48.022;13.830;2024-02-28T13:09:06;42.05;;;19.92;;
84231;SDS011;74368;48.022;13.830;2024-02-28T13:11:38;37.55;;;19.20;;
84231;SDS011;74368;48.022;13.830;2024-02-28T13:14:03;42.40;;;20.90;;
84231;SDS011;74368;48.022;13.830;2024-02-28T13:16:29;41.20;;;19.35;;
84231;SDS011;74368;48.022;13.830;2024-02-28T13:18:55;39.20;;;19.40;;
84231;SDS011;74368;48.022;13.830;2024-02-28T13:21:20;39.95;;;19.85;;
84231;SDS011;74368;48.022;13.830;2024-02-28T13:23:46;36.35;;;18.55;;
84231;SDS011;74368;48.022;13.830;2024-02-28T13:26:11;38.97;;;18.75;;
84231;SDS011;74368;48.022;13.830;2024-02-28T13:28:42;39.15;;;17.95;;
84231;SDS011;74368;48.022;13.830;2024-02-28T13:31:09;41.92;;;19.40;;
84231;SDS011;74368;48.022;13.830;2024-02-28T13:33:34;42.10;;;19.92;;
84231;SDS011;74368;48.022;13.830;2024-02-28T13:36:02;42.33;;;19.38;;
84231;SDS011;74368;48.022;13.830;2024-02-28T13:38:27;41.38;;;18.17;;
84231;SDS011;74368;48.022;13.830;2024-02-28T13:40:54;41.00;;;19.25;;
84231;SDS011;74368;48.022;13.830;2024-02-28T13:43:19;48.00;;;19.75;;
84231;SDS011;74368;48.022;13.830;2024-02-28T13:45:51;43.20;;;19.95;;
84231;SDS011;74368;48.022;13.830;2024-02-28T13:48:20;40.22;;;17.48;;
84231;SDS011;74368;48.022;13.830;2024-02-28T13:50:49;40.53;;;18.58;;
84231;SDS011;74368;48.022;13.830;2024-02-28T13:53:15;44.13;;;20.33;;
84231;SDS011;74368;48.022;13.830;2024-02-28T13:55:41;40.72;;;18.27;;
84231;SDS011;74368;48.022;13.830;2024-02-28T13:58:07;41.00;;;19.05;;
84231;SDS011;74368;48.022;13.830;2024-02-28T14:00:34;43.83;;;18.63;;
84231;SDS011;74368;48.022;13.830;2024-02-28T14:03:00;47.25;;;20.65;;
84231;SDS011;74368;48.022;13.830;2024-02-28T14:05:26;41.38;;;19.25;;
84231;SDS011;74368;48.022;13.830;2024-02-28T14:07:53;42.13;;;18.98;;
84231;SDS011;74368;48.022;13.830;2024-02-28T14:10:19;42.42;;;20.00;;
84231;SDS011;74368;48.022;13.830;2024-02-28T14:12:44;41.42;;;18.08;;
84231;SDS011;74368;48.022;13.830;2024-02-28T14:15:09;43.95;;;18.08;;
84231;SDS011;74368;48.022;13.830;2024-02-28T14:17:36;48.47;;;19.00;;
84231;SDS011;74368;48.022;13.830;2024-02-28T14:20:02;36.10;;;16.55;;
84231;SDS011;74368;48.022;13.830;2024-02-28T14:22:28;41.80;;;18.70;;
84231;SDS011;74368;48.022;13.830;2024-02-28T14:24:54;41.08;;;17.88;;
84231;SDS011;74368;48.022;13.830;2024-02-28T14:27:19;42.50;;;18.27;;
84231;SDS011;74368;48.022;13.830;2024-02-28T14:33:26;38.55;;;17.02;;